Saint Joseph, MO

2:33 PM CDT on October 23, 2014 (GMT -0500)
St. Joseph | Change Station
CLOSE
Current Station
Airport
Location: St. Joseph,
Elevation: 817 ft
Nearby Weather Stations

Elev 817 ft 39.77 °N, 94.91 °W | Updated 40 minutes ago

Overcast
Overcast
70 °F
Feels Like 70 °F
N
8
Wind Variable Wind from SSW

Today
High -- | Low -- °F
--% Chance of Precip.
Yesterday
High -- | Low -- °F
Precip. -- in
7:38 AM 6:28 PM
Waning Crescent, 0% visible
Pressure 30.05 in
Visibility 10.0 miles
Clouds Few 1600 ft
Overcast 4100 ft
Dew Point 61 °F
Humidity 73%
Rainfall 0.33 in
Snow Depth Not available.
UV 1 out of 12
Pollen 1.50 out of 12
Air Quality Not available.
Flu Activity Not available.
METAR KSTJ 231853Z 21007KT 10SM FEW016 OVC041 21/16 A3006 RMK AO2 SLP174 T02110161

More Conditions Fewer Conditions

Pressure 30.05 in
Visibility 10.0 miles
Clouds Few 1600 ft
Overcast 4100 ft
Dew Point 61 °F
Humidity 73%
Rainfall 0.33 in
Snow Depth Not available.
UV 1 out of 12
Pollen 1.50 out of 12
Air Quality Not available.
Flu Activity Not available.
METAR KSTJ 231853Z 21007KT 10SM FEW016 OVC041 21/16 A3006 RMK AO2 SLP174 T02110161

More Conditions Fewer Conditions

10-Day Weather Forecast

Almanac

Astronomy

Oct. 23, 2014 Rise Set
Actual Time 7:38 AM CDT 6:28 PM CDT
Civil Twilight 7:10 AM CDT 6:56 PM CDT
Nautical Twilight 6:39 AM CDT 7:27 PM CDT
Astronomical Twilight 6:07 AM CDT 7:58 PM CDT
Moon 7:18 AM CDT 6:30 PM CDT
Length of Visible Light 11h 45m
Length of Day
10h 50m
Tomorrow will be 2m 25s shorter.
Waning Crescent, 0% of the Moon is Illuminated
Today
Waning Crescent
Oct 23
New
Oct 30
First Quarter
Nov 6
Full
Nov 14
Last Quarter

Today's Extremes

State Highs State Lows

Community

WunderPhotos

Upload Photos

1,764,350 photos uploaded!

WunderBlogs® & News

By Dr. Jeff Masters
Director of Meteorology, Weather Underground
By Kari Strenfel
Meteorologist, Weather Underground
By Christopher C. Burt
Weather Historian, Weather Underground
October 23, 2014
October 23, 2014
October 23, 2014

Nearby

Snow Depth

Station Depth Elevation
No new snow has been reported.

Earthquake Activity

City Distance Mag. Time & Date
No recent earthquake activity has been reported nearby.
Minimum magnitude displayed is 2.5.

Coastal Water Temperatures

Place Temperature
No Stations Reporting

Nearby Weather Stations